createdAt,value
2023-03-07T00:00:01.410Z,86
2023-03-07T00:01:03.552Z,86
2023-03-07T00:02:01.335Z,86
2023-03-07T00:03:01.835Z,86
2023-03-07T00:05:03.806Z,85.9
2023-03-07T00:06:01.316Z,85.9
2023-03-07T00:07:01.803Z,85.9
2023-03-07T00:08:02.313Z,85.9
2023-03-07T00:09:03.401Z,85.8
2023-03-07T00:10:02.196Z,85.8
2023-03-07T00:11:01.725Z,85.7
2023-03-07T00:12:03.874Z,85.6
2023-03-07T00:13:03.314Z,85.5
2023-03-07T00:14:02.230Z,85.5
2023-03-07T00:15:01.631Z,85.6
2023-03-07T00:16:02.201Z,85.5
2023-03-07T00:17:01.641Z,85.5
2023-03-07T00:18:02.108Z,85.5
2023-03-07T00:19:01.547Z,85.5
2023-03-07T00:20:02.042Z,85.4
2023-03-07T00:21:01.567Z,85.3
2023-03-07T00:22:02.035Z,85.3
2023-03-07T00:23:01.505Z,85.4
2023-03-07T00:24:01.944Z,85.3
2023-03-07T00:25:03.070Z,85.4
2023-03-07T00:26:01.886Z,85.4
2023-03-07T00:27:01.406Z,85.5
2023-03-07T00:28:03.549Z,85.6
2023-03-07T00:29:01.418Z,85.6
2023-03-07T00:30:01.806Z,85.5
2023-03-07T00:31:02.432Z,85.5
2023-03-07T00:32:01.853Z,85.5
2023-03-07T00:33:02.275Z,85.6
2023-03-07T00:34:01.712Z,85.6
2023-03-07T00:35:02.196Z,85.7
2023-03-07T00:36:01.798Z,85.7
2023-03-07T00:37:02.193Z,85.8
2023-03-07T00:38:01.714Z,85.8
2023-03-07T00:39:03.815Z,85.8
2023-03-07T00:40:01.688Z,85.9
2023-03-07T00:41:02.109Z,85.9
2023-03-07T00:42:01.630Z,85.9
2023-03-07T00:43:02.114Z,85.9
2023-03-07T00:44:01.563Z,85.9
2023-03-07T00:45:02.137Z,86
2023-03-07T00:46:01.620Z,86
2023-03-07T00:47:03.706Z,86
2023-03-07T00:48:01.469Z,86
2023-03-07T00:49:02.037Z,86
2023-03-07T00:50:01.491Z,86
2023-03-07T00:51:01.979Z,86.1
2023-03-07T00:52:01.481Z,86.1
2023-03-07T00:53:01.999Z,86.2
2023-03-07T00:54:01.456Z,86.2
2023-03-07T00:55:03.558Z,86.2
2023-03-07T00:56:03.096Z,86.2
2023-03-07T00:57:02.820Z,86.1
2023-03-07T00:58:01.559Z,86.1
2023-03-07T00:59:02.034Z,86.1
2023-03-07T01:00:03.171Z,86.1
2023-03-07T01:01:02.029Z,86.2
2023-03-07T01:02:01.493Z,86.3
2023-03-07T01:03:02.006Z,86.3
2023-03-07T01:04:01.452Z,86.2
2023-03-07T01:05:01.874Z,86.2
2023-03-07T01:06:01.334Z,86.3
2023-03-07T01:07:03.503Z,86.3
2023-03-07T01:08:02.277Z,86.3
2023-03-07T01:09:01.797Z,86.3
2023-03-07T01:10:02.287Z,86.3
2023-03-07T01:11:01.725Z,86.3
2023-03-07T01:12:02.211Z,86.4
2023-03-07T01:13:01.737Z,86.4
2023-03-07T01:14:02.196Z,86.4
2023-03-07T01:15:03.327Z,86.4
2023-03-07T01:16:02.242Z,86.5
2023-03-07T01:17:01.688Z,86.5
2023-03-07T01:18:02.130Z,86.4
2023-03-07T01:19:03.263Z,86.3
2023-03-07T01:20:02.044Z,86.3
2023-03-07T01:21:01.580Z,86.2
2023-03-07T01:22:02.045Z,86.1
2023-03-07T01:23:01.561Z,86.1
2023-03-07T01:24:03.657Z,86.2
2023-03-07T01:25:01.538Z,86.2
2023-03-07T01:26:03.638Z,86
2023-03-07T01:27:01.516Z,85.8
2023-03-07T01:28:03.565Z,85.8
2023-03-07T01:29:01.412Z,85.7
2023-03-07T01:30:03.564Z,85.7
2023-03-07T01:31:01.330Z,85.7
2023-03-07T01:32:03.613Z,85.6
2023-03-07T01:33:02.284Z,85.5
2023-03-07T01:34:01.735Z,85.4
2023-03-07T01:35:02.215Z,85.4
2023-03-07T01:36:01.866Z,85.4
2023-03-07T01:37:02.201Z,85.3
2023-03-07T01:38:01.712Z,85.2
2023-03-07T01:39:02.225Z,85.2
2023-03-07T01:40:01.644Z,85.1
2023-03-07T01:41:02.119Z,85.1
2023-03-07T01:42:03.313Z,84.9
2023-03-07T01:43:03.814Z,84.8
2023-03-07T01:44:01.601Z,84.7
2023-03-07T01:45:03.718Z,84.6
2023-03-07T01:46:01.624Z,84.6
2023-03-07T01:47:02.031Z,84.6
2023-03-07T01:48:01.471Z,84.5
2023-03-07T01:49:01.968Z,84.6
2023-03-07T01:50:01.580Z,84.6
2023-03-07T01:51:03.628Z,84.7
2023-03-07T01:52:01.468Z,84.7
2023-03-07T01:53:01.892Z,84.8
2023-03-07T01:54:01.404Z,84.8
2023-03-07T01:55:03.579Z,84.8
2023-03-07T01:56:02.999Z,84.8
2023-03-07T01:57:02.744Z,84.7
2023-03-07T01:58:03.155Z,84.8
2023-03-07T01:59:01.952Z,84.8
2023-03-07T02:00:01.463Z,84.8
2023-03-07T02:01:02.038Z,84.7
2023-03-07T02:02:01.388Z,84.7
2023-03-07T02:03:03.558Z,84.6
2023-03-07T02:04:01.427Z,84.6
2023-03-07T02:05:01.885Z,84.5
2023-03-07T02:06:01.356Z,84.4
2023-03-07T02:07:01.794Z,84.4
2023-03-07T02:08:02.270Z,84.3
2023-03-07T02:09:01.791Z,84.4
2023-03-07T02:10:02.266Z,84.3
2023-03-07T02:11:01.732Z,84.3
2023-03-07T02:12:02.192Z,84.4
2023-03-07T02:13:01.718Z,84.5
2023-03-07T02:14:02.189Z,84.5
2023-03-07T02:15:01.756Z,84.5
2023-03-07T02:16:02.404Z,84.5
2023-03-07T02:17:01.636Z,84.6
2023-03-07T02:18:02.111Z,84.7
2023-03-07T02:19:01.544Z,84.4
2023-03-07T02:20:03.698Z,84.2
2023-03-07T02:21:01.578Z,84.1
2023-03-07T02:22:03.719Z,84
2023-03-07T02:23:01.481Z,84
2023-03-07T02:24:01.965Z,84
2023-03-07T02:25:01.464Z,83.9
2023-03-07T02:26:01.966Z,83.8
2023-03-07T02:27:03.068Z,83.7
2023-03-07T02:28:03.553Z,83.3
2023-03-07T02:29:03.005Z,82.8
2023-03-07T02:30:01.790Z,82.7
2023-03-07T02:32:03.554Z,82.3
2023-03-07T02:33:02.276Z,82.4
2023-03-07T02:34:03.392Z,82.2
2023-03-07T02:35:02.192Z,82.2
2023-03-07T02:36:01.751Z,82.4
2023-03-07T02:37:02.211Z,82.6
2023-03-07T02:38:01.772Z,82.2
2023-03-07T02:39:02.202Z,82.3
2023-03-07T02:40:01.636Z,82.2
2023-03-07T02:41:02.136Z,82.1
2023-03-07T02:42:03.229Z,81.6
2023-03-07T02:43:03.808Z,81.6
2023-03-07T02:44:03.227Z,81.3
2023-03-07T02:45:02.070Z,80.8
2023-03-07T02:46:01.621Z,80.7
2023-03-07T02:47:02.036Z,80.9
2023-03-07T02:48:01.466Z,80.9
2023-03-07T02:49:01.977Z,81.2
2023-03-07T02:50:01.413Z,81.5
2023-03-07T02:51:01.890Z,80.7
2023-03-07T02:52:01.396Z,80.8
2023-03-07T02:53:01.867Z,81.1
2023-03-07T02:54:01.431Z,80.9
2023-03-07T02:55:01.883Z,81
2023-03-07T02:56:01.312Z,80.9
2023-03-07T02:57:01.785Z,80.8
2023-03-07T02:58:01.316Z,80.6
2023-03-07T02:59:01.836Z,80.9
2023-03-07T03:00:03.950Z,81
2023-03-07T03:01:01.801Z,81
2023-03-07T03:02:02.280Z,80.8
2023-03-07T03:03:01.720Z,80.8
2023-03-07T03:04:02.221Z,80.8
2023-03-07T03:05:03.483Z,81
2023-03-07T03:06:02.204Z,81.1
2023-03-07T03:07:01.644Z,80.9
2023-03-07T03:08:02.203Z,80.4
2023-03-07T03:09:01.662Z,80.4
2023-03-07T03:10:02.120Z,80.5
2023-03-07T03:11:01.653Z,80.6
2023-03-07T03:12:03.779Z,80.6
2023-03-07T03:13:01.559Z,80.6
2023-03-07T03:14:02.144Z,80.7
2023-03-07T03:15:03.249Z,80.9
2023-03-07T03:16:02.116Z,80.7
2023-03-07T03:17:01.554Z,80.9
2023-03-07T03:18:02.041Z,80.7
2023-03-07T03:19:01.501Z,80.3
2023-03-07T03:20:01.960Z,80.6
2023-03-07T03:21:01.510Z,80.2
2023-03-07T03:22:01.963Z,80.1
2023-03-07T03:23:01.402Z,79.8
2023-03-07T03:24:01.879Z,80.2
2023-03-07T03:25:01.404Z,79.7
2023-03-07T03:26:01.915Z,80.1
2023-03-07T03:27:01.391Z,79.8
2023-03-07T03:28:03.558Z,79.9
2023-03-07T03:29:01.317Z,79.8
2023-03-07T03:30:01.804Z,79.7
2023-03-07T03:31:02.346Z,79.5
2023-03-07T03:32:01.816Z,79.5
2023-03-07T03:33:02.280Z,79.8
2023-03-07T03:34:01.727Z,79.9
2023-03-07T03:35:02.251Z,80.2
2023-03-07T03:36:01.798Z,80.1
2023-03-07T03:37:02.228Z,79.3
2023-03-07T03:38:01.634Z,79.6
2023-03-07T03:39:02.135Z,79.8
2023-03-07T03:40:01.641Z,79.2
2023-03-07T03:41:02.122Z,79.6
2023-03-07T03:42:01.573Z,79.5
2023-03-07T03:43:02.117Z,79.8
2023-03-07T03:44:01.576Z,80
2023-03-07T03:45:02.073Z,80.2
2023-03-07T03:46:03.243Z,79.9
2023-03-07T03:47:02.044Z,79.9
2023-03-07T03:48:03.152Z,79.6
2023-03-07T03:49:01.991Z,79.7
2023-03-07T03:50:03.154Z,79.8
2023-03-07T03:51:01.957Z,79.7
2023-03-07T03:52:03.095Z,79.6
2023-03-07T03:53:01.876Z,79.2
2023-03-07T03:54:03.091Z,79.1
2023-03-07T03:55:01.880Z,79.5
2023-03-07T03:56:01.397Z,79.5
2023-03-07T03:57:04.492Z,79.5
2023-03-07T03:58:02.192Z,78.9
2023-03-07T03:59:01.709Z,79.1
2023-03-07T04:00:02.212Z,79
2023-03-07T04:01:01.724Z,79.4
2023-03-07T04:02:02.333Z,79.7
2023-03-07T04:03:01.809Z,79.3
2023-03-07T04:04:02.118Z,79.4
2023-03-07T04:05:03.323Z,79.6
2023-03-07T04:06:02.135Z,79.8
2023-03-07T04:07:01.580Z,79.8
2023-03-07T04:08:02.042Z,79.4
2023-03-07T04:09:01.555Z,79.1
2023-03-07T04:10:02.031Z,78.9
2023-03-07T04:11:01.469Z,79.3
2023-03-07T04:12:01.968Z,79.2
2023-03-07T04:13:03.203Z,79.3
2023-03-07T04:14:01.955Z,78.8
2023-03-07T04:15:01.392Z,79
2023-03-07T04:16:01.924Z,79.1
2023-03-07T04:17:01.412Z,78.7
2023-03-07T04:18:01.878Z,79.2
2023-03-07T04:19:03.001Z,79.3
2023-03-07T04:20:03.476Z,78.7
2023-03-07T04:21:03.956Z,79.3
2023-03-07T04:22:01.817Z,78.7
2023-03-07T04:23:02.301Z,79.1
2023-03-07T04:24:01.715Z,78.6
2023-03-07T04:25:02.199Z,78.7
2023-03-07T04:26:01.799Z,78.8
2023-03-07T04:27:02.221Z,78.5
2023-03-07T04:28:01.638Z,78.6
2023-03-07T04:29:02.100Z,78.3
2023-03-07T04:30:03.310Z,78.5
2023-03-07T04:31:02.120Z,78.6
2023-03-07T04:32:03.500Z,78.8
2023-03-07T04:33:02.031Z,79.4
2023-03-07T04:34:01.554Z,79.6
2023-03-07T04:35:02.058Z,79.3
2023-03-07T04:36:01.495Z,79.2
2023-03-07T04:37:01.961Z,79.1
2023-03-07T04:38:01.516Z,79.1
2023-03-07T04:39:01.952Z,78.8
2023-03-07T04:40:03.070Z,79.1
2023-03-07T04:41:01.868Z,79.1
2023-03-07T04:42:01.394Z,78.9
2023-03-07T04:43:01.912Z,78.8
2023-03-07T04:44:01.322Z,79
2023-03-07T04:45:04.894Z,79.1
2023-03-07T04:46:02.343Z,79.1
2023-03-07T04:47:01.794Z,79.4
2023-03-07T04:48:02.301Z,79.2
2023-03-07T04:49:01.715Z,79.3
2023-03-07T04:50:02.198Z,79.7
2023-03-07T04:51:01.715Z,79.7
2023-03-07T04:52:03.869Z,79.6
2023-03-07T04:53:01.659Z,78.9
2023-03-07T04:54:03.793Z,78.4
2023-03-07T04:55:01.646Z,78.7
2023-03-07T04:56:02.115Z,78.6
2023-03-07T04:57:01.557Z,78.6
2023-03-07T04:58:02.160Z,78.8
2023-03-07T04:59:01.563Z,79.1
2023-03-07T05:00:02.047Z,79
2023-03-07T05:01:01.622Z,79.6
2023-03-07T05:02:02.104Z,79.2
2023-03-07T05:03:03.170Z,79.4
2023-03-07T05:04:02.010Z,79.6
2023-03-07T05:05:01.490Z,79.8
2023-03-07T05:06:01.953Z,79.3
2023-03-07T05:07:01.485Z,79
2023-03-07T05:08:01.948Z,79.2
2023-03-07T05:09:01.416Z,79.2
2023-03-07T05:10:01.941Z,79.5
2023-03-07T05:11:01.420Z,79.5
2023-03-07T05:12:01.871Z,79
2023-03-07T05:13:01.314Z,78.7
2023-03-07T05:14:01.804Z,79.4
2023-03-07T05:15:02.997Z,79.4
2023-03-07T05:16:01.828Z,79.3
2023-03-07T05:17:02.296Z,79.7
2023-03-07T05:18:03.467Z,79.7
2023-03-07T05:19:05.628Z,79.9
2023-03-07T05:20:01.747Z,79.9
2023-03-07T05:21:02.194Z,79.7
2023-03-07T05:22:01.726Z,79.5
2023-03-07T05:23:02.208Z,79.8
2023-03-07T05:24:01.644Z,80.1
2023-03-07T05:25:02.195Z,80.3
2023-03-07T05:26:01.645Z,80.1
2023-03-07T05:27:02.108Z,79.6
2023-03-07T05:28:03.325Z,79.5
2023-03-07T05:29:02.110Z,79.1
2023-03-07T05:30:03.220Z,79.5
2023-03-07T05:31:03.788Z,79.7
2023-03-07T05:32:01.593Z,79.8
2023-03-07T05:33:02.032Z,79.8
2023-03-07T05:34:03.178Z,79.9
2023-03-07T05:35:02.030Z,79.6
2023-03-07T05:36:03.204Z,79.7
2023-03-07T05:37:01.958Z,79.6
2023-03-07T05:38:01.393Z,79.8
2023-03-07T05:39:01.867Z,79.6
2023-03-07T05:40:01.413Z,79.5
2023-03-07T05:41:01.876Z,79.7
2023-03-07T05:42:03.065Z,80
2023-03-07T05:43:01.868Z,80.3
2023-03-07T05:44:02.985Z,80.4
2023-03-07T05:45:01.903Z,80.3
2023-03-07T05:46:01.398Z,80.3
2023-03-07T05:47:01.799Z,80.5
2023-03-07T05:48:02.284Z,79.9
2023-03-07T05:49:01.723Z,79.7
2023-03-07T05:50:02.216Z,79.9
2023-03-07T05:51:01.712Z,80.1
2023-03-07T05:52:02.201Z,80.1
2023-03-07T05:53:01.721Z,80
2023-03-07T05:54:03.873Z,80
2023-03-07T05:55:01.653Z,79.8
2023-03-07T05:56:02.199Z,79.7
2023-03-07T05:57:02.595Z,79.4
2023-03-07T05:58:03.006Z,79.5
2023-03-07T05:59:01.791Z,79.3
2023-03-07T06:00:03.979Z,79.5
2023-03-07T06:01:03.470Z,79.7
2023-03-07T06:02:03.984Z,79.8
2023-03-07T06:03:01.729Z,79.8
2023-03-07T06:04:02.288Z,79.2
2023-03-07T06:05:01.740Z,79.5
2023-03-07T06:06:02.122Z,79.9
2023-03-07T06:07:01.634Z,79.7
2023-03-07T06:08:02.118Z,79.4
2023-03-07T06:09:03.243Z,79.7
2023-03-07T06:10:02.079Z,79.4
2023-03-07T06:11:01.555Z,79.3
2023-03-07T06:12:02.037Z,79.6
2023-03-07T06:13:03.151Z,80
2023-03-07T06:14:01.952Z,80.3
2023-03-07T06:15:01.501Z,80.5
2023-03-07T06:16:02.033Z,80.7
2023-03-07T06:17:01.422Z,80.6
2023-03-07T06:18:01.892Z,80.8
2023-03-07T06:19:01.394Z,80.5
2023-03-07T06:20:03.557Z,80.3
2023-03-07T06:21:03.016Z,80.3
2023-03-07T06:22:01.822Z,80.5
2023-03-07T06:23:02.306Z,80.5
2023-03-07T06:24:01.724Z,80.5
2023-03-07T06:25:02.283Z,80.3
2023-03-07T06:26:01.723Z,80.3
2023-03-07T06:27:02.220Z,80.2
2023-03-07T06:28:01.727Z,80.3
2023-03-07T06:29:02.201Z,80.1
2023-03-07T06:30:01.638Z,80.2
2023-03-07T06:31:02.196Z,80.2
2023-03-07T06:32:01.683Z,80.5
2023-03-07T06:33:02.128Z,80.3
2023-03-07T06:34:03.231Z,80.5
2023-03-07T06:35:02.141Z,80.6
2023-03-07T06:36:01.583Z,80.9
2023-03-07T06:37:02.055Z,81.2
2023-03-07T06:38:03.264Z,81.5
2023-03-07T06:39:02.041Z,81.8
2023-03-07T06:40:01.501Z,81.8
2023-03-07T06:41:03.722Z,81.9
2023-03-07T06:42:01.606Z,82.1
2023-03-07T06:43:03.673Z,82.5
2023-03-07T06:44:01.424Z,82.7
2023-03-07T06:45:01.898Z,82.8
2023-03-07T06:46:01.466Z,82.8
2023-03-07T06:47:01.879Z,82.9
2023-03-07T06:48:01.320Z,82.7
2023-03-07T06:49:01.816Z,82.8
2023-03-07T06:50:03.966Z,82.9
2023-03-07T06:51:01.797Z,83.1
2023-03-07T06:52:02.281Z,83
2023-03-07T06:53:01.746Z,83.1
2023-03-07T06:54:02.235Z,83.2
2023-03-07T06:55:03.411Z,83.2
2023-03-07T06:56:02.197Z,83.1
2023-03-07T06:57:02.627Z,83
2023-03-07T06:58:01.323Z,82.9
2023-03-07T06:59:03.479Z,82.8
2023-03-07T07:00:02.312Z,82.7
2023-03-07T07:01:03.519Z,82.8
2023-03-07T07:02:04.139Z,82.9
2023-03-07T07:03:01.824Z,83.1
2023-03-07T07:04:02.225Z,83.2
2023-03-07T07:05:01.661Z,83.3
2023-03-07T07:06:02.124Z,83.3
2023-03-07T07:07:01.648Z,83.2
2023-03-07T07:08:02.134Z,83.4
2023-03-07T07:09:01.603Z,83.4
2023-03-07T07:10:02.056Z,83.5
2023-03-07T07:11:03.170Z,83.4
2023-03-07T07:12:02.072Z,83.2
2023-03-07T07:13:01.480Z,83.3
2023-03-07T07:14:01.981Z,83.1
2023-03-07T07:15:01.485Z,83.1
2023-03-07T07:16:01.963Z,83
2023-03-07T07:17:01.402Z,82.8
2023-03-07T07:18:01.896Z,82.8
2023-03-07T07:19:03.019Z,82.6
2023-03-07T07:20:01.869Z,82.3
2023-03-07T07:21:01.313Z,82.2
2023-03-07T07:22:03.465Z,82.1
2023-03-07T07:23:02.275Z,82.1
2023-03-07T07:24:03.417Z,81.9
2023-03-07T07:25:02.296Z,82
2023-03-07T07:26:01.722Z,82
2023-03-07T07:27:02.196Z,81.5
2023-03-07T07:28:01.707Z,81.7
2023-03-07T07:29:03.870Z,81.6
2023-03-07T07:30:01.643Z,81.5
2023-03-07T07:31:03.815Z,81.4
2023-03-07T07:32:01.743Z,81.3
2023-03-07T07:33:02.229Z,81.3
2023-03-07T07:34:03.235Z,81.4
2023-03-07T07:35:02.034Z,81.5
2023-03-07T07:36:01.594Z,81.5
2023-03-07T07:37:02.061Z,81.2
2023-03-07T07:38:03.147Z,80.8
2023-03-07T07:39:01.958Z,80.7
2023-03-07T07:40:01.479Z,80.9
2023-03-07T07:41:01.968Z,81.3
2023-03-07T07:42:01.432Z,81.3
2023-03-07T07:43:01.878Z,81
2023-03-07T07:44:01.417Z,80.6
2023-03-07T07:45:01.873Z,81
2023-03-07T07:46:01.401Z,81.3
2023-03-07T07:47:01.804Z,81.1
2023-03-07T07:48:02.278Z,80.7
2023-03-07T07:49:03.488Z,80.5
2023-03-07T07:50:02.281Z,80.7
2023-03-07T07:51:03.384Z,80.4
2023-03-07T07:52:02.184Z,80.5
2023-03-07T07:53:01.722Z,80.3
2023-03-07T07:54:02.203Z,79.7
2023-03-07T07:55:01.656Z,79.8
2023-03-07T07:56:03.798Z,79.7
2023-03-07T07:57:01.560Z,80
2023-03-07T07:58:02.152Z,80
2023-03-07T07:59:01.558Z,80.4
2023-03-07T08:00:02.051Z,79.9
2023-03-07T08:01:01.585Z,80.1
2023-03-07T08:02:02.232Z,80.3
2023-03-07T08:03:03.155Z,80.3
2023-03-07T08:04:01.961Z,79.8
2023-03-07T08:05:01.477Z,80
2023-03-07T08:06:01.987Z,79.7
2023-03-07T08:07:01.394Z,79.5
2023-03-07T08:08:01.881Z,79.5
2023-03-07T08:09:01.403Z,80.1
2023-03-07T08:10:01.888Z,80.1
2023-03-07T08:11:03.025Z,80.1
2023-03-07T08:12:01.800Z,79.6
2023-03-07T08:13:02.277Z,79.7
2023-03-07T08:14:01.795Z,79.2
2023-03-07T08:15:03.967Z,80.2
2023-03-07T08:16:01.769Z,80.2
2023-03-07T08:17:02.219Z,80.3
2023-03-07T08:18:01.716Z,79.8
2023-03-07T08:19:03.873Z,79.3
2023-03-07T08:20:01.872Z,79.2
2023-03-07T08:21:02.109Z,79.3
2023-03-07T08:22:03.326Z,79.7
2023-03-07T08:23:02.114Z,79.5
2023-03-07T08:24:01.560Z,79.8
2023-03-07T08:25:02.076Z,79.6
2023-03-07T08:26:01.551Z,79.2
2023-03-07T08:27:02.051Z,78.9
2023-03-07T08:28:01.476Z,79.4
2023-03-07T08:29:01.954Z,78.9
2023-03-07T08:30:01.518Z,78.6
2023-03-07T08:31:02.002Z,78.8
2023-03-07T08:32:01.420Z,78.9
2023-03-07T08:33:03.553Z,78.8
2023-03-07T08:34:01.400Z,79.2
2023-03-07T08:35:01.874Z,79
2023-03-07T08:36:01.434Z,78.4
2023-03-07T08:37:01.800Z,78.9
2023-03-07T08:38:02.279Z,78.5
2023-03-07T08:39:01.809Z,78.4
2023-03-07T08:40:03.971Z,78.2
2023-03-07T08:41:01.748Z,78.8
2023-03-07T08:42:02.232Z,78.3
2023-03-07T08:43:01.757Z,78
2023-03-07T08:44:03.872Z,78.2
2023-03-07T08:45:01.639Z,78.3
2023-03-07T08:46:02.165Z,78.2
2023-03-07T08:47:01.643Z,78.9
2023-03-07T08:48:02.152Z,78.2
2023-03-07T08:49:01.554Z,78.2
2023-03-07T08:50:02.046Z,78.4
2023-03-07T08:51:01.558Z,77.8
2023-03-07T08:52:02.025Z,77.4
2023-03-07T08:53:01.501Z,77.1
2023-03-07T08:54:01.962Z,77.9
2023-03-07T08:55:01.481Z,77.9
2023-03-07T08:56:01.946Z,77.7
2023-03-07T08:57:01.419Z,77.9
2023-03-07T08:58:01.946Z,77.5
2023-03-07T08:59:01.412Z,77.4
2023-03-07T09:00:01.863Z,77.4
2023-03-07T09:01:02.998Z,77.7
2023-03-07T09:02:03.572Z,77.5
2023-03-07T09:03:03.954Z,77.9
2023-03-07T09:04:01.787Z,78.1
2023-03-07T09:05:04.053Z,78.2
2023-03-07T09:06:01.712Z,78.1
2023-03-07T09:07:03.870Z,78.2
2023-03-07T09:08:03.309Z,78.1
2023-03-07T09:09:02.190Z,78
2023-03-07T09:10:01.637Z,77.5
2023-03-07T09:11:02.125Z,77.7
2023-03-07T09:12:01.632Z,77.9
2023-03-07T09:13:02.121Z,77.5
2023-03-07T09:14:01.559Z,78.5
2023-03-07T09:15:02.038Z,77.4
2023-03-07T09:16:01.616Z,77.6
2023-03-07T09:17:02.038Z,77.1
2023-03-07T09:18:01.560Z,77.5
2023-03-07T09:19:02.032Z,77.3
2023-03-07T09:20:03.201Z,78.3
2023-03-07T09:21:01.952Z,77.3
2023-03-07T09:22:01.474Z,76.8
2023-03-07T09:23:01.958Z,76.9
2023-03-07T09:24:03.077Z,77.6
2023-03-07T09:25:01.874Z,76.2
2023-03-07T09:26:01.466Z,77.2
2023-03-07T09:27:01.879Z,77.6
2023-03-07T09:28:01.342Z,77.5
2023-03-07T09:29:01.868Z,76.1
2023-03-07T09:30:02.999Z,76.7
2023-03-07T09:31:01.815Z,77.3
2023-03-07T09:32:02.504Z,76.5
2023-03-07T09:33:03.468Z,77.2
2023-03-07T09:34:02.288Z,76.7
2023-03-07T09:35:01.747Z,76.2
2023-03-07T09:36:02.225Z,76
2023-03-07T09:37:01.719Z,75.9
2023-03-07T09:38:03.896Z,76.4
2023-03-07T09:39:03.309Z,76.6
2023-03-07T09:40:02.113Z,75.5
2023-03-07T09:41:01.650Z,75.1
2023-03-07T09:42:02.121Z,75.4
2023-03-07T09:43:01.552Z,75.7
2023-03-07T09:44:02.036Z,76.6
2023-03-07T09:45:01.560Z,76.1
2023-03-07T09:46:02.121Z,75.1
2023-03-07T09:47:01.579Z,75
2023-03-07T09:48:02.034Z,74.3
2023-03-07T09:49:01.462Z,75.7
2023-03-07T09:50:01.958Z,76
2023-03-07T09:51:11.342Z,76.1
2023-03-07T09:52:03.623Z,74.7
2023-03-07T09:53:01.393Z,75
2023-03-07T09:54:01.882Z,74
2023-03-07T09:55:01.351Z,74.1
2023-03-07T09:56:01.906Z,75.4
2023-03-07T09:57:03.042Z,75.2
2023-03-07T09:58:01.902Z,74.7
2023-03-07T10:00:01.817Z,75.3
2023-03-07T10:01:02.266Z,75.2
2023-03-07T10:02:01.724Z,74.5
2023-03-07T10:03:02.217Z,74.4
2023-03-07T10:04:03.420Z,73.6
2023-03-07T10:05:02.222Z,74
2023-03-07T10:06:01.630Z,74.4
2023-03-07T10:07:02.126Z,74.1
2023-03-07T10:08:01.670Z,73.2
2023-03-07T10:09:03.910Z,75.2
2023-03-07T10:10:03.316Z,74
2023-03-07T10:11:02.055Z,74
2023-03-07T10:12:03.336Z,73.2
2023-03-07T10:13:02.054Z,72.9
2023-03-07T10:14:01.480Z,73.6
2023-03-07T10:15:01.966Z,73.4
2023-03-07T10:16:01.491Z,73
2023-03-07T10:17:03.688Z,74.3
2023-03-07T10:18:03.191Z,75
2023-03-07T10:19:01.887Z,74.6
2023-03-07T10:20:03.090Z,73.4
2023-03-07T10:21:03.567Z,73.8
2023-03-07T10:22:02.996Z,73.6
2023-03-07T10:23:01.823Z,73.3
2023-03-07T10:24:02.283Z,74.2
2023-03-07T10:25:01.796Z,74.8
2023-03-07T10:26:03.966Z,74
2023-03-07T10:27:01.744Z,73.1
2023-03-07T10:28:02.219Z,73.9
2023-03-07T10:29:01.727Z,73.6
2023-03-07T10:30:02.225Z,73.9
2023-03-07T10:31:01.643Z,74.2
2023-03-07T10:32:02.209Z,73.7
2023-03-07T10:33:01.697Z,73
2023-03-07T10:34:03.790Z,73.3
2023-03-07T10:35:01.563Z,73.6
2023-03-07T10:36:02.069Z,73.1
2023-03-07T10:37:08.805Z,74.2
2023-03-07T10:38:02.032Z,73.4
2023-03-07T10:39:01.469Z,73.6
2023-03-07T10:40:04.458Z,75.1
2023-03-07T10:41:01.503Z,74
2023-03-07T10:42:03.649Z,73.2
2023-03-07T10:43:01.395Z,74.2
2023-03-07T10:44:01.871Z,72.7
2023-03-07T10:45:01.389Z,72.5
2023-03-07T10:46:01.945Z,72.6
2023-03-07T10:47:01.444Z,72.6
2023-03-07T10:48:01.814Z,72.8
2023-03-07T10:50:01.795Z,73.7
2023-03-07T10:51:02.266Z,73
2023-03-07T10:52:03.385Z,74
2023-03-07T10:53:02.204Z,72.8
2023-03-07T10:54:03.426Z,72.9
2023-03-07T10:55:02.239Z,72.9
2023-03-07T10:56:01.651Z,72.5
2023-03-07T10:57:03.794Z,72.3
2023-03-07T10:58:01.661Z,73.5
2023-03-07T10:59:02.136Z,73.2
2023-03-07T11:00:01.636Z,73.8
2023-03-07T11:01:02.181Z,72
2023-03-07T11:02:01.578Z,71.1
2023-03-07T11:03:02.034Z,71.3
2023-03-07T11:04:03.141Z,72.1
2023-03-07T11:05:02.065Z,70.9
2023-03-07T11:06:01.478Z,71.3
2023-03-07T11:07:03.654Z,72.7
2023-03-07T11:08:01.413Z,72.4
2023-03-07T11:09:04.029Z,71
2023-03-07T11:10:01.391Z,71.4
2023-03-07T11:11:01.870Z,71.3
2023-03-07T11:12:01.408Z,72.4
2023-03-07T11:13:01.921Z,72.2
2023-03-07T11:14:01.324Z,71.6
2023-03-07T11:15:01.792Z,71.3
2023-03-07T11:16:10.984Z,71.3
2023-03-07T11:17:01.789Z,71.9
2023-03-07T11:18:02.275Z,72.3
2023-03-07T11:19:01.703Z,72.3
2023-03-07T11:20:02.184Z,71.9
2023-03-07T11:21:03.410Z,71.1
2023-03-07T11:22:02.203Z,71.7
2023-03-07T11:23:03.301Z,71.6
2023-03-07T11:24:02.248Z,70.7
2023-03-07T11:25:01.633Z,71.3
2023-03-07T11:26:02.123Z,70.6
2023-03-07T11:27:03.307Z,70.7
2023-03-07T11:28:02.052Z,71.5
2023-03-07T11:29:03.259Z,71.7
2023-03-07T11:30:02.025Z,71.3
2023-03-07T11:31:01.480Z,70.6
2023-03-07T11:32:03.576Z,71.6
2023-03-07T11:33:01.459Z,71.2
2023-03-07T11:34:03.643Z,71.2
2023-03-07T11:35:03.199Z,71
2023-03-07T11:36:02.028Z,71.4
2023-03-07T11:37:01.389Z,70.7
2023-03-07T11:38:01.862Z,70.8
2023-03-07T11:39:01.385Z,70
2023-03-07T11:40:03.573Z,70.5
2023-03-07T11:41:01.316Z,71.3
2023-03-07T11:42:01.778Z,70.6
2023-03-07T11:43:03.950Z,70.6
2023-03-07T11:44:03.179Z,71.3
2023-03-07T11:45:02.319Z,71.7
2023-03-07T11:46:01.739Z,72.8
2023-03-07T11:47:02.270Z,71.3
2023-03-07T11:48:01.712Z,71.5
2023-03-07T11:49:02.207Z,70.6
2023-03-07T11:50:01.731Z,70.9
2023-03-07T11:51:02.216Z,70.4
2023-03-07T11:52:01.624Z,71
2023-03-07T11:53:02.113Z,71.1
2023-03-07T11:54:01.630Z,70.4
2023-03-07T11:55:03.804Z,70.3
2023-03-07T11:56:01.566Z,69.9
2023-03-07T11:57:02.054Z,69.7
2023-03-07T11:58:04.210Z,69.1
2023-03-07T11:59:03.709Z,70.3
2023-03-07T12:00:03.147Z,70.3
2023-03-07T12:01:01.964Z,69.2
2023-03-07T12:02:01.486Z,69.7
2023-03-07T12:03:02.235Z,69.1
2023-03-07T12:04:01.393Z,70.8
2023-03-07T12:05:01.895Z,72.3
2023-03-07T12:06:01.493Z,69.5
2023-03-07T12:07:02.151Z,71
2023-03-07T12:08:01.350Z,69.1
2023-03-07T12:09:03.518Z,69.4
2023-03-07T12:10:02.325Z,68.2
2023-03-07T12:11:01.794Z,69
2023-03-07T12:12:02.292Z,69.7
2023-03-07T12:13:01.734Z,68.9
2023-03-07T12:14:02.319Z,70
2023-03-07T12:15:01.650Z,68.4
2023-03-07T12:16:02.132Z,69.2
2023-03-07T12:17:01.641Z,69.9
2023-03-07T12:18:03.804Z,69.9
2023-03-07T12:19:01.551Z,69.9
2023-03-07T12:20:02.033Z,68
2023-03-07T12:21:01.580Z,68.4
2023-03-07T12:22:02.046Z,69.6
2023-03-07T12:23:03.150Z,69.2
2023-03-07T12:24:01.959Z,69.4
2023-03-07T12:25:01.486Z,68.8
2023-03-07T12:26:01.970Z,67.6
2023-03-07T12:27:01.403Z,67.5
2023-03-07T12:28:03.549Z,67.9
2023-03-07T12:29:01.400Z,67.9
2023-03-07T12:30:01.873Z,68.4
2023-03-07T12:31:03.203Z,68.4
2023-03-07T12:32:03.710Z,68.5
2023-03-07T12:33:02.324Z,67.7
2023-03-07T12:34:03.464Z,68
2023-03-07T12:35:02.272Z,69.5
2023-03-07T12:36:01.846Z,68.6
2023-03-07T12:37:02.204Z,69.6
2023-03-07T12:38:01.727Z,70.2
2023-03-07T12:39:03.863Z,69.4
2023-03-07T12:40:03.589Z,69.7
2023-03-07T12:41:02.194Z,68.5
2023-03-07T12:42:01.640Z,69.4
2023-03-07T12:43:02.114Z,69.1
2023-03-07T12:44:03.350Z,69.5
2023-03-07T12:45:02.119Z,68.5
2023-03-07T12:46:01.628Z,69.4
2023-03-07T12:47:02.040Z,68.7
2023-03-07T12:48:03.162Z,68.3
2023-03-07T12:49:02.052Z,68.1
2023-03-07T12:50:01.504Z,67.8
2023-03-07T12:51:01.983Z,68
2023-03-07T12:52:01.475Z,68.2
2023-03-07T12:53:01.955Z,67.9
2023-03-07T12:54:01.402Z,67.4
2023-03-07T12:55:01.886Z,68
2023-03-07T12:56:02.994Z,68
2023-03-07T12:57:01.812Z,67.2
2023-03-07T12:58:03.245Z,68.3
2023-03-07T12:59:01.879Z,68.5
2023-03-07T13:01:01.821Z,68.3
2023-03-07T13:02:02.297Z,67.6
2023-03-07T13:03:01.802Z,67.6
2023-03-07T13:04:02.363Z,67.2
2023-03-07T13:05:01.711Z,67.7
2023-03-07T13:06:02.202Z,67.6
2023-03-07T13:07:01.659Z,67.8
2023-03-07T13:08:02.213Z,67.9
2023-03-07T13:09:03.322Z,68.1
2023-03-07T13:10:02.107Z,68.1
2023-03-07T13:11:01.558Z,67.8
2023-03-07T13:12:02.028Z,68.1
2023-03-07T13:13:03.249Z,67.2
2023-03-07T13:14:02.074Z,67.5
2023-03-07T13:15:01.559Z,67.5
2023-03-07T13:16:02.024Z,67.3
2023-03-07T13:17:03.149Z,67.8
2023-03-07T13:18:01.947Z,68.3
2023-03-07T13:19:01.503Z,68.8
2023-03-07T13:20:01.943Z,68
2023-03-07T13:21:01.380Z,68.4
2023-03-07T13:22:01.869Z,67.5
2023-03-07T13:23:01.424Z,67
2023-03-07T13:24:03.562Z,66.8
2023-03-07T13:25:03.001Z,67.9
2023-03-07T13:26:01.794Z,68
2023-03-07T13:27:01.329Z,67.6
2023-03-07T13:28:01.810Z,67.8